createdAt,value
2023-04-19T00:00:01.652Z,17.14
2023-04-19T00:02:47.719Z,18.44
2023-04-19T00:05:35.638Z,18.06
2023-04-19T00:08:21.615Z,18.31
2023-04-19T00:11:07.627Z,19.34
2023-04-19T00:13:53.817Z,18.68
2023-04-19T00:16:39.696Z,18.81
2023-04-19T00:19:26.061Z,18.69
2023-04-19T00:22:12.027Z,19.32
2023-04-19T00:24:57.934Z,19.62
2023-04-19T00:27:43.845Z,18.84
2023-04-19T00:30:29.701Z,19.47
2023-04-19T00:33:15.547Z,18.91
2023-04-19T00:36:01.458Z,19.34
2023-04-19T00:38:47.356Z,19.08
2023-04-19T00:41:33.345Z,19.29
2023-04-19T00:44:19.203Z,19.28
2023-04-19T00:47:05.008Z,19.50
2023-04-19T00:49:50.919Z,19.61
2023-04-19T00:52:36.833Z,19.55
2023-04-19T00:55:22.620Z,19.33
2023-04-19T00:58:08.710Z,19.10
2023-04-19T01:00:54.546Z,19.22
2023-04-19T01:03:40.643Z,19.36
2023-04-19T01:06:26.950Z,19.06
2023-04-19T01:09:12.616Z,19.64
2023-04-19T01:11:58.537Z,19.15
2023-04-19T01:14:44.406Z,19.37
2023-04-19T01:17:30.327Z,19.39
2023-04-19T01:20:16.286Z,18.92
2023-04-19T01:23:02.125Z,18.98
2023-04-19T01:25:48.238Z,19.18
2023-04-19T01:28:34.454Z,19.25
2023-04-19T01:31:20.382Z,20.15
2023-04-19T01:34:06.754Z,19.92
2023-04-19T01:36:52.712Z,20.48
2023-04-19T01:39:38.775Z,20.77
2023-04-19T01:42:24.751Z,21.47
2023-04-19T01:45:10.542Z,22.80
2023-04-19T01:47:56.594Z,23.31
2023-04-19T01:50:42.637Z,23.66
2023-04-19T01:53:28.530Z,23.30
2023-04-19T01:56:14.585Z,23.20
2023-04-19T01:59:00.476Z,22.50
2023-04-19T02:01:46.295Z,22.01
2023-04-19T02:04:32.292Z,22.35
2023-04-19T02:07:18.175Z,22.18
2023-04-19T02:10:04.104Z,22.51
2023-04-19T02:12:49.931Z,22.51
2023-04-19T02:15:35.810Z,23.83
2023-04-19T02:18:21.714Z,23.91
2023-04-19T02:21:07.597Z,23.90
2023-04-19T02:23:53.558Z,23.78
2023-04-19T02:26:39.687Z,23.56
2023-04-19T02:29:25.476Z,23.26
2023-04-19T02:32:11.474Z,22.92
2023-04-19T02:34:57.308Z,22.30
2023-04-19T02:37:43.227Z,23.04
2023-04-19T02:40:29.101Z,22.84
2023-04-19T02:43:14.959Z,23.29
2023-04-19T02:46:00.813Z,23.46
2023-04-19T02:48:46.833Z,23.92
2023-04-19T02:51:32.784Z,23.72
2023-04-19T02:54:18.661Z,23.69
2023-04-19T02:57:04.530Z,23.27
2023-04-19T02:59:50.370Z,23.20
2023-04-19T03:02:36.381Z,23.32
2023-04-19T03:05:22.358Z,23.33
2023-04-19T03:08:08.296Z,22.80
2023-04-19T03:10:54.106Z,23.06
2023-04-19T03:13:39.953Z,23.69
2023-04-19T03:16:25.942Z,24.32
2023-04-19T03:19:11.896Z,24.48
2023-04-19T03:21:57.694Z,24.47
2023-04-19T03:24:43.614Z,23.63
2023-04-19T03:27:29.488Z,24.70
2023-04-19T03:30:15.556Z,23.24
2023-04-19T03:33:01.386Z,24.43
2023-04-19T03:35:47.256Z,25.16
2023-04-19T03:38:33.141Z,24.07
2023-04-19T03:41:19.113Z,24.17
2023-04-19T03:44:05.106Z,23.04
2023-04-19T03:46:52.959Z,23.59
2023-04-19T03:49:38.686Z,23.80
2023-04-19T03:52:24.583Z,24.10
2023-04-19T03:55:10.480Z,26.88
2023-04-19T03:57:56.387Z,28.38
2023-04-19T04:00:42.363Z,26.99
2023-04-19T04:03:28.366Z,24.51
2023-04-19T04:06:14.606Z,21.47
2023-04-19T04:09:00.594Z,23.87
2023-04-19T04:11:46.586Z,26.17
2023-04-19T04:14:32.474Z,26.74
2023-04-19T04:17:18.324Z,34.91
2023-04-19T04:20:04.278Z,28.35
2023-04-19T04:22:50.220Z,34.38
2023-04-19T04:25:36.057Z,26.86
2023-04-19T04:28:21.975Z,26.62
2023-04-19T04:31:07.920Z,24.66
2023-04-19T04:33:53.832Z,24.81
2023-04-19T04:36:39.818Z,21.76
2023-04-19T04:39:25.697Z,21.64
2023-04-19T04:42:11.543Z,21.73
2023-04-19T04:44:57.528Z,22.00
2023-04-19T04:47:43.435Z,25.84
2023-04-19T04:50:29.343Z,31.10
2023-04-19T04:53:15.446Z,26.93
2023-04-19T04:56:01.405Z,32.86
2023-04-19T04:58:47.291Z,26.68
2023-04-19T05:01:33.192Z,24.65
2023-04-19T05:04:19.188Z,24.11
2023-04-19T05:07:05.431Z,24.10
2023-04-19T05:09:51.311Z,24.54
2023-04-19T05:12:37.292Z,27.17
2023-04-19T05:15:23.240Z,24.70
2023-04-19T05:18:09.126Z,26.48
2023-04-19T05:20:55.014Z,24.54
2023-04-19T05:23:40.980Z,30.92
2023-04-19T05:26:26.936Z,25.04
2023-04-19T05:29:12.856Z,25.19
2023-04-19T05:31:58.795Z,32.55
2023-04-19T05:34:44.684Z,28.41
2023-04-19T05:37:30.549Z,31.72
2023-04-19T05:40:16.450Z,28.70
2023-04-19T05:43:02.405Z,33.92
2023-04-19T05:45:48.440Z,31.96
2023-04-19T05:48:34.586Z,25.50
2023-04-19T05:51:20.550Z,27.29
2023-04-19T05:54:06.397Z,25.74
2023-04-19T05:56:52.316Z,26.06
2023-04-19T05:59:38.295Z,25.93
2023-04-19T06:02:24.303Z,26.55
2023-04-19T06:05:11.247Z,26.98
2023-04-19T06:08:02.676Z,27.70
2023-04-19T06:10:54.466Z,26.42
2023-04-19T06:13:43.088Z,26.32
2023-04-19T06:16:28.900Z,27.07
2023-04-19T06:19:14.930Z,25.87
2023-04-19T06:22:00.861Z,26.17
2023-04-19T06:24:48.937Z,25.31
2023-04-19T06:27:34.816Z,26.27
2023-04-19T06:30:20.815Z,25.59
2023-04-19T06:33:06.683Z,25.55
2023-04-19T06:35:52.776Z,25.08
2023-04-19T06:38:38.640Z,25.60
2023-04-19T06:41:24.615Z,26.20
2023-04-19T06:44:10.776Z,25.47
2023-04-19T06:46:56.856Z,25.34
2023-04-19T06:49:42.740Z,24.70
2023-04-19T06:52:28.640Z,24.87
2023-04-19T06:55:14.514Z,24.62
2023-04-19T06:58:00.573Z,24.85
2023-04-19T07:00:46.323Z,25.04
2023-04-19T07:03:32.417Z,24.63
2023-04-19T07:06:18.657Z,25.77
2023-04-19T07:09:04.598Z,24.97
2023-04-19T07:11:50.565Z,25.51
2023-04-19T07:14:36.507Z,24.36
2023-04-19T07:17:22.310Z,25.97
2023-04-19T07:20:08.419Z,24.21
2023-04-19T07:22:54.352Z,23.64
2023-04-19T07:25:40.318Z,24.36
2023-04-19T07:28:26.114Z,23.59
2023-04-19T07:31:11.905Z,23.87
2023-04-19T07:33:57.724Z,23.88
2023-04-19T07:36:43.574Z,22.81
2023-04-19T07:39:29.575Z,22.52
2023-04-19T07:42:15.598Z,21.85
2023-04-19T07:45:01.396Z,22.52
2023-04-19T07:47:47.531Z,21.47
2023-04-19T07:50:33.332Z,22.17
2023-04-19T07:53:19.325Z,22.05
2023-04-19T07:56:05.413Z,21.45
2023-04-19T07:59:04.513Z,21.04
2023-04-19T08:01:54.251Z,20.68
2023-04-19T08:04:40.747Z,19.51
2023-04-19T08:07:26.830Z,20.09
2023-04-19T08:10:12.820Z,19.18
2023-04-19T08:13:05.985Z,20.36
2023-04-19T08:16:27.209Z,21.06
2023-04-19T08:18:59.034Z,20.31
2023-04-19T08:21:44.866Z,19.77
2023-04-19T08:24:30.732Z,20.58
2023-04-19T08:27:16.699Z,20.89
2023-04-19T08:30:02.531Z,19.70
2023-04-19T08:32:48.530Z,18.66
2023-04-19T08:35:34.361Z,18.11
2023-04-19T08:38:20.390Z,19.05
2023-04-19T08:41:06.377Z,20.39
2023-04-19T08:43:52.229Z,19.87
2023-04-19T08:46:38.378Z,20.83
2023-04-19T08:49:24.667Z,20.58
2023-04-19T08:52:10.628Z,20.75
2023-04-19T08:54:56.574Z,19.32
2023-04-19T08:57:42.336Z,20.03
2023-04-19T09:00:28.312Z,19.32
2023-04-19T09:03:14.460Z,19.32
2023-04-19T09:06:00.977Z,18.94
2023-04-19T09:08:47.395Z,19.32
2023-04-19T09:11:33.324Z,19.90
2023-04-19T09:14:19.254Z,19.62
2023-04-19T09:17:05.117Z,19.32
2023-04-19T09:19:51.133Z,19.17
2023-04-19T09:22:36.994Z,19.15
2023-04-19T09:25:43.746Z,18.99
2023-04-19T09:28:29.153Z,18.33
2023-04-19T09:31:35.412Z,18.72
2023-04-19T09:34:21.174Z,18.17
2023-04-19T09:37:13.449Z,18.81
2023-04-19T09:40:05.867Z,18.21
2023-04-19T09:45:40.746Z,17.69
2023-04-19T09:48:26.498Z,18.21
2023-04-19T09:51:14.545Z,19.66
2023-04-19T09:54:00.979Z,17.83
2023-04-19T09:56:46.943Z,18.40
2023-04-19T09:59:32.839Z,17.98
2023-04-19T10:02:19.034Z,16.80
2023-04-19T10:05:19.734Z,17.66
2023-04-19T10:08:07.244Z,17.93
2023-04-19T10:10:53.132Z,17.95
2023-04-19T10:13:39.003Z,17.57
2023-04-19T10:16:25.029Z,17.60
2023-04-19T10:19:10.833Z,17.63
2023-04-19T10:21:56.709Z,18.05
2023-04-19T10:24:44.507Z,17.56
2023-04-19T10:27:30.954Z,17.46
2023-04-19T10:30:16.939Z,18.41
2023-04-19T10:33:02.889Z,18.31
2023-04-19T10:35:49.141Z,17.90
2023-04-19T10:38:35.045Z,18.00
2023-04-19T10:41:20.971Z,18.47
2023-04-19T10:44:06.963Z,18.26
2023-04-19T10:46:52.994Z,18.74
2023-04-19T10:49:38.992Z,19.22
2023-04-19T10:52:24.945Z,18.78
2023-04-19T10:55:10.843Z,18.12
2023-04-19T10:57:56.751Z,18.35
2023-04-19T11:00:42.647Z,17.94
2023-04-19T11:03:29.045Z,18.26
2023-04-19T11:06:15.506Z,18.51
2023-04-19T11:09:01.746Z,19.08
2023-04-19T11:11:47.625Z,18.71
2023-04-19T11:14:33.659Z,18.30
2023-04-19T11:17:19.605Z,19.59
2023-04-19T11:20:05.512Z,18.15
2023-04-19T11:22:51.635Z,18.66
2023-04-19T11:25:37.360Z,18.91
2023-04-19T11:28:23.365Z,18.51
2023-04-19T11:31:09.452Z,18.84
2023-04-19T11:33:55.330Z,20.31
2023-04-19T11:36:41.141Z,20.68
2023-04-19T11:39:27.102Z,18.54
2023-04-19T11:42:12.950Z,18.13
2023-04-19T11:45:00.808Z,18.13
2023-04-19T11:47:46.881Z,19.35
2023-04-19T11:50:33.023Z,18.64
2023-04-19T11:53:19.082Z,18.90
2023-04-19T11:56:05.262Z,19.09
2023-04-19T11:58:51.695Z,17.54
2023-04-19T12:01:37.636Z,17.46
2023-04-19T12:04:23.664Z,18.27
2023-04-19T12:07:10.046Z,17.77
2023-04-19T12:09:56.056Z,17.43
2023-04-19T12:12:42.221Z,17.26
2023-04-19T12:15:28.829Z,17.79
2023-04-19T12:18:15.294Z,17.04
2023-04-19T12:21:01.646Z,16.54
2023-04-19T12:23:47.689Z,15.70
2023-04-19T12:26:33.602Z,15.44
2023-04-19T12:29:19.795Z,14.59
2023-04-19T12:32:05.824Z,16.64
2023-04-19T12:34:51.776Z,16.12
2023-04-19T12:37:37.810Z,16.14
2023-04-19T12:40:23.813Z,15.83
2023-04-19T12:43:09.643Z,15.50
2023-04-19T12:45:55.672Z,15.54
2023-04-19T12:48:41.507Z,16.28
2023-04-19T12:51:27.334Z,16.47
2023-04-19T12:54:13.425Z,16.73
2023-04-19T12:56:59.763Z,16.19
2023-04-19T12:59:46.608Z,15.73
2023-04-19T13:02:32.682Z,15.85
2023-04-19T13:05:18.836Z,15.18
2023-04-19T13:08:05.151Z,15.36
2023-04-19T13:10:51.263Z,15.20
2023-04-19T13:13:37.260Z,15.08
2023-04-19T13:16:23.309Z,15.08
2023-04-19T13:19:09.230Z,14.45
2023-04-19T13:21:55.160Z,13.51
2023-04-19T13:24:41.135Z,13.37
2023-04-19T13:27:27.011Z,14.89
2023-04-19T13:30:13.055Z,14.63
2023-04-19T13:32:59.337Z,13.98
2023-04-19T13:35:45.355Z,13.87
2023-04-19T13:38:31.396Z,14.18
2023-04-19T13:41:17.342Z,14.25
2023-04-19T13:44:03.349Z,14.87
2023-04-19T13:46:49.418Z,14.61
2023-04-19T13:49:35.373Z,13.68
2023-04-19T13:52:21.443Z,12.95
2023-04-19T13:55:07.399Z,11.83
2023-04-19T13:57:53.240Z,12.55
2023-04-19T14:00:39.222Z,11.76
2023-04-19T14:03:25.407Z,13.24
2023-04-19T14:08:54.115Z,12.89
2023-04-19T14:11:40.053Z,11.93
2023-04-19T14:14:25.982Z,11.85
2023-04-19T14:17:11.920Z,12.02
2023-04-19T14:19:57.885Z,11.84
2023-04-19T14:22:43.819Z,12.08
2023-04-19T14:25:29.771Z,12.23
2023-04-19T14:28:15.644Z,12.85
2023-04-19T14:31:01.444Z,10.88
2023-04-19T14:33:47.436Z,11.15
2023-04-19T14:36:33.480Z,11.05
2023-04-19T14:39:20.381Z,10.18
2023-04-19T14:42:06.184Z,10.84
2023-04-19T14:44:52.285Z,12.21
2023-04-19T14:47:38.361Z,12.49
2023-04-19T14:50:24.568Z,11.71
2023-04-19T14:53:10.392Z,12.27
2023-04-19T14:55:56.177Z,12.16
2023-04-19T14:58:42.216Z,11.81
2023-04-19T15:01:28.054Z,12.65
2023-04-19T15:04:14.130Z,12.83
2023-04-19T15:07:00.393Z,12.85
2023-04-19T15:09:46.268Z,14.25
2023-04-19T15:12:32.322Z,13.41
2023-04-19T15:15:18.145Z,13.78
2023-04-19T15:18:04.001Z,13.36
2023-04-19T15:20:49.946Z,13.97
2023-04-19T15:23:35.853Z,14.37
2023-04-19T15:26:21.680Z,13.96
2023-04-19T15:29:07.558Z,14.30
2023-04-19T15:31:53.419Z,14.09
2023-04-19T15:34:39.754Z,14.71
2023-04-19T15:37:25.597Z,14.61
2023-04-19T15:40:11.309Z,14.50
2023-04-19T15:42:57.287Z,13.77
2023-04-19T15:45:45.112Z,14.43
2023-04-19T15:48:31.011Z,13.27
2023-04-19T15:51:17.037Z,13.86
2023-04-19T15:54:02.866Z,13.65
2023-04-19T15:56:48.632Z,13.64
2023-04-19T15:59:34.405Z,14.41
2023-04-19T16:02:20.488Z,14.00
2023-04-19T16:05:06.503Z,14.57
2023-04-19T16:07:52.365Z,14.74
2023-04-19T16:10:38.263Z,15.53
2023-04-19T16:13:24.249Z,16.41
2023-04-19T16:16:10.053Z,16.20
2023-04-19T16:18:56.015Z,16.13
2023-04-19T16:21:43.751Z,15.71
2023-04-19T16:24:29.696Z,16.05
2023-04-19T16:27:15.700Z,16.01
2023-04-19T16:30:01.560Z,15.89
2023-04-19T16:32:47.622Z,16.40
2023-04-19T16:35:33.599Z,16.66
2023-04-19T16:38:19.426Z,17.34
2023-04-19T16:41:05.146Z,17.13
2023-04-19T16:43:51.078Z,17.65
2023-04-19T16:46:36.943Z,17.22
2023-04-19T16:49:22.951Z,16.95
2023-04-19T16:52:08.771Z,16.59
2023-04-19T16:54:54.800Z,16.51
2023-04-19T16:57:40.791Z,16.88
2023-04-19T17:00:26.821Z,16.76
2023-04-19T17:03:12.918Z,16.70
2023-04-19T17:05:59.131Z,16.18
2023-04-19T17:08:45.023Z,15.75
2023-04-19T17:11:30.940Z,15.83
2023-04-19T17:14:16.982Z,15.40
2023-04-19T17:17:03.061Z,14.92
2023-04-19T17:19:48.975Z,16.40
2023-04-19T17:22:34.812Z,16.68
2023-04-19T17:25:22.238Z,16.54
2023-04-19T17:28:08.614Z,15.85
2023-04-19T17:30:54.444Z,15.64
2023-04-19T17:33:40.390Z,15.12
2023-04-19T17:36:26.261Z,14.46
2023-04-19T17:39:12.082Z,14.32
2023-04-19T17:41:57.851Z,14.12
2023-04-19T17:44:43.708Z,14.30
2023-04-19T17:47:29.620Z,13.30
2023-04-19T17:50:15.407Z,12.93
2023-04-19T17:53:01.186Z,12.79
2023-04-19T17:55:47.164Z,12.91
2023-04-19T17:58:32.992Z,12.97
2023-04-19T18:01:18.813Z,12.71
2023-04-19T18:04:05.136Z,12.14
2023-04-19T18:06:51.114Z,12.00
2023-04-19T18:09:37.139Z,12.30
2023-04-19T18:12:22.957Z,12.32
2023-04-19T18:15:08.776Z,12.16
2023-04-19T18:17:54.675Z,11.66
2023-04-19T18:20:40.333Z,12.23
2023-04-19T18:23:28.270Z,12.35
2023-04-19T18:26:14.288Z,12.27
2023-04-19T18:29:00.152Z,12.19
2023-04-19T18:31:46.049Z,11.96
2023-04-19T18:34:31.944Z,12.53
2023-04-19T18:37:17.749Z,12.57
2023-04-19T18:40:03.706Z,12.27
2023-04-19T18:42:49.587Z,12.41
2023-04-19T18:45:35.767Z,12.32
2023-04-19T18:48:21.823Z,12.63
2023-04-19T18:51:07.613Z,12.51
2023-04-19T18:53:53.442Z,12.75
2023-04-19T18:57:18.404Z,12.14
2023-04-19T18:59:45.117Z,12.20
2023-04-19T19:02:31.025Z,12.77
2023-04-19T19:05:17.411Z,12.20
2023-04-19T19:08:03.669Z,12.71
2023-04-19T19:11:14.337Z,11.98
2023-04-19T19:13:56.196Z,12.53
2023-04-19T19:16:51.268Z,12.50
2023-04-19T19:19:37.802Z,11.95
2023-04-19T19:22:28.263Z,12.11
2023-04-19T19:25:14.829Z,11.95
2023-04-19T19:30:49.851Z,12.39
2023-04-19T19:33:38.908Z,12.10
2023-04-19T19:36:25.938Z,12.33
2023-04-19T19:39:11.752Z,12.51
2023-04-19T19:42:06.063Z,12.33
2023-04-19T19:44:52.619Z,12.52
2023-04-19T19:47:44.554Z,12.36
2023-04-19T19:53:20.609Z,12.68
2023-04-19T19:56:13.054Z,12.32
2023-04-19T19:59:04.904Z,12.40
2023-04-19T20:01:50.784Z,12.07
2023-04-19T20:04:36.800Z,12.77
2023-04-19T20:07:33.273Z,12.44
2023-04-19T20:10:28.013Z,12.55
2023-04-19T20:13:13.973Z,12.41
2023-04-19T20:15:59.817Z,12.37
2023-04-19T20:18:45.664Z,12.79
2023-04-19T20:21:31.440Z,13.01
2023-04-19T20:24:17.237Z,12.44
2023-04-19T20:27:03.136Z,12.69
2023-04-19T20:29:48.842Z,12.48
2023-04-19T20:32:34.739Z,12.19
2023-04-19T20:35:20.615Z,12.37
2023-04-19T20:38:06.496Z,12.51
2023-04-19T20:40:52.379Z,12.76
2023-04-19T20:43:38.183Z,12.02
2023-04-19T20:46:24.223Z,12.70
2023-04-19T20:49:10.449Z,12.21
2023-04-19T20:51:56.396Z,12.35
2023-04-19T20:54:42.308Z,12.28
2023-04-19T20:57:28.131Z,11.92
2023-04-19T21:00:14.075Z,14.03
2023-04-19T21:03:00.027Z,13.06
2023-04-19T21:05:45.909Z,12.94
2023-04-19T21:08:31.912Z,12.24
2023-04-19T21:11:17.966Z,12.72
2023-04-19T21:14:03.869Z,12.85
2023-04-19T21:16:49.657Z,12.76
2023-04-19T21:19:35.427Z,12.86
2023-04-19T21:22:21.315Z,12.92
2023-04-19T21:25:07.292Z,12.69
2023-04-19T21:27:53.167Z,13.01
2023-04-19T21:30:39.060Z,12.92
2023-04-19T21:33:24.900Z,13.32
2023-04-19T21:36:10.907Z,13.54
2023-04-19T21:38:56.887Z,13.35
2023-04-19T21:41:42.779Z,13.17
2023-04-19T21:44:28.457Z,13.50
2023-04-19T21:47:14.392Z,13.92
2023-04-19T21:50:00.282Z,13.36
2023-04-19T21:52:46.343Z,14.25
2023-04-19T21:55:34.368Z,14.02
2023-04-19T21:58:20.255Z,13.73
2023-04-19T22:01:06.025Z,14.38
2023-04-19T22:03:52.193Z,14.63
2023-04-19T22:06:38.248Z,14.38
2023-04-19T22:09:24.005Z,14.87
2023-04-19T22:12:09.848Z,14.90
2023-04-19T22:14:55.812Z,15.00
2023-04-19T22:17:41.906Z,14.61
2023-04-19T22:20:27.986Z,15.38
2023-04-19T22:23:14.055Z,15.26
2023-04-19T22:26:00.108Z,15.81
2023-04-19T22:28:46.003Z,15.73
2023-04-19T22:31:32.054Z,16.35
2023-04-19T22:34:17.770Z,16.52
2023-04-19T22:37:03.669Z,16.69
2023-04-19T22:39:49.535Z,17.05
2023-04-19T22:42:35.386Z,16.59
2023-04-19T22:45:21.305Z,17.07
2023-04-19T22:48:07.124Z,17.88
2023-04-19T22:50:53.112Z,17.97
2023-04-19T22:53:39.066Z,18.52
2023-04-19T22:56:24.808Z,17.89
2023-04-19T22:59:10.770Z,17.87
2023-04-19T23:01:56.814Z,18.82
2023-04-19T23:04:43.077Z,19.49
2023-04-19T23:07:29.021Z,19.76
2023-04-19T23:10:14.929Z,20.58
2023-04-19T23:13:00.976Z,20.87
2023-04-19T23:15:46.946Z,21.93
2023-04-19T23:18:32.734Z,21.59
2023-04-19T23:21:18.559Z,21.33
2023-04-19T23:24:04.361Z,21.39
2023-04-19T23:26:50.122Z,21.63
2023-04-19T23:29:36.066Z,21.09
2023-04-19T23:32:22.045Z,20.07
2023-04-19T23:35:08.032Z,19.50
2023-04-19T23:37:54.056Z,17.63
2023-04-19T23:40:39.826Z,16.58
2023-04-19T23:43:25.699Z,15.50
2023-04-19T23:46:11.540Z,14.37
2023-04-19T23:48:57.455Z,13.82
2023-04-19T23:51:43.407Z,13.36
2023-04-19T23:54:29.225Z,13.28
2023-04-19T23:57:15.310Z,13.44
